createdAt,value
2023-02-14T07:25:35.159Z,22.58
2023-02-14T07:28:20.038Z,22.14
2023-02-14T07:30:49.939Z,22.46
2023-02-14T07:34:18.619Z,22.65
2023-02-14T07:37:47.348Z,22.91
2023-02-14T07:41:16.032Z,22.75
2023-02-14T07:44:44.751Z,22.66
2023-02-14T07:48:13.473Z,22.75
2023-02-14T07:51:03.337Z,22.55
2023-02-14T07:54:32.156Z,22.65
2023-02-14T07:58:00.895Z,22.96
2023-02-14T08:01:29.661Z,22.67
2023-02-14T08:04:58.466Z,22.72
2023-02-14T08:08:27.168Z,22.79
2023-02-14T08:11:54.401Z,22.80
2023-02-14T08:15:23.110Z,22.69
2023-02-14T08:18:51.780Z,22.65
2023-02-14T08:22:20.416Z,22.91
2023-02-14T08:25:49.265Z,22.95
2023-02-14T08:29:01.116Z,22.72
2023-02-14T08:32:30.025Z,22.79
2023-02-14T08:35:58.836Z,22.91
2023-02-14T08:39:27.481Z,22.75
2023-02-14T08:42:56.084Z,22.84
2023-02-14T08:46:24.925Z,22.80
2023-02-14T08:49:53.604Z,23.12
2023-02-14T08:53:22.249Z,22.99
2023-02-14T08:56:50.972Z,23.06
2023-02-14T09:00:19.715Z,23.00
2023-02-14T09:03:48.453Z,23.11
2023-02-14T09:07:17.241Z,23.15
2023-02-14T09:10:45.910Z,23.40
2023-02-14T09:14:17.220Z,23.60
2023-02-14T09:17:46.026Z,23.52
2023-02-14T09:21:14.964Z,23.74
2023-02-14T09:23:44.960Z,23.84
2023-02-14T09:27:14.861Z,23.80
2023-02-14T09:30:43.533Z,23.93
2023-02-14T09:34:12.219Z,23.99
2023-02-14T09:36:59.655Z,24.25
2023-02-14T09:40:28.345Z,24.20
2023-02-14T09:43:43.314Z,24.19
2023-02-14T09:47:12.016Z,24.20
2023-02-14T09:49:42.031Z,24.24
2023-02-14T09:53:10.921Z,24.35
2023-02-14T09:56:50.770Z,24.14
2023-02-14T10:00:35.218Z,24.20
2023-02-14T10:04:12.216Z,24.49
2023-02-14T10:07:17.149Z,24.41
2023-02-14T10:10:50.318Z,24.42
2023-02-14T10:14:02.229Z,24.58
2023-02-14T10:17:30.874Z,24.37
2023-02-14T10:20:42.877Z,24.44
2023-02-14T10:23:44.154Z,24.39
2023-02-14T10:27:16.077Z,24.45
2023-02-14T10:30:44.800Z,24.32
2023-02-14T10:34:19.545Z,24.55
2023-02-14T10:37:39.020Z,24.42
2023-02-14T10:41:22.887Z,24.63
2023-02-14T10:44:46.986Z,24.78
2023-02-14T10:47:43.405Z,24.91
2023-02-14T10:50:51.053Z,24.64
2023-02-14T10:54:02.854Z,24.82
2023-02-14T10:57:40.687Z,25.17
2023-02-14T11:00:50.141Z,25.05
2023-02-14T11:04:18.815Z,25.06
2023-02-14T11:07:47.590Z,25.29
2023-02-14T11:11:16.293Z,25.71
2023-02-14T11:14:59.954Z,25.08
2023-02-14T11:18:31.386Z,25.22
2023-02-14T11:22:06.237Z,25.44
2023-02-14T14:01:42.250Z,24.73
2023-02-14T14:04:30.406Z,24.83
2023-02-14T14:07:06.094Z,24.76
2023-02-14T14:10:04.433Z,24.53
2023-02-14T14:12:56.729Z,24.78
2023-02-14T14:16:25.491Z,24.82
2023-02-14T14:19:24.151Z,24.86
2023-02-14T14:22:51.504Z,24.53
2023-02-14T14:26:18.536Z,24.37
2023-02-14T14:29:45.465Z,24.14
2023-02-14T14:33:14.165Z,24.29
2023-02-14T14:36:45.569Z,24.24
2023-02-14T14:40:14.315Z,24.53
2023-02-14T14:43:42.966Z,24.36
2023-02-14T14:47:11.794Z,24.36
2023-02-14T14:50:43.070Z,24.24
2023-02-14T14:53:58.343Z,24.13
2023-02-14T14:57:07.282Z,24.26
2023-02-14T15:00:05.973Z,24.20
2023-02-14T15:02:37.574Z,24.12
2023-02-14T15:06:12.361Z,23.90
2023-02-14T15:09:42.062Z,24.12
2023-02-14T15:13:10.477Z,24.13
2023-02-14T15:16:39.299Z,24.13
2023-02-14T15:20:08.126Z,24.24
2023-02-14T15:23:39.870Z,24.28
2023-02-14T15:26:10.128Z,24.25
2023-02-14T15:28:40.192Z,24.17
2023-02-14T15:31:10.402Z,24.28
2023-02-14T15:33:40.832Z,24.29
2023-02-14T15:36:17.571Z,24.05
2023-02-14T15:38:47.683Z,24.15
2023-02-14T15:41:19.054Z,24.15
2023-02-14T15:43:54.180Z,23.92
2023-02-14T15:46:29.985Z,24.09
